Home > Products > Valid Products > TAF

000
FTUS45 KGJT 240119 AAA
TAFGJT
TAF AMD
KGJT 240119Z 2401/2424 17009KT P6SM SCT110 SCT180
     FM240600 11013KT P6SM FEW120 BKN150
     FM241900 20009KT P6SM VCTS SCT120CB BKN150=



000
FTUS45 KGJT 232342
TAFGJT
TAF
KGJT 232342Z 2400/2424 15012G22KT P6SM VCTS SCT110CB BKN180
      TEMPO 2400/2402 VRB20G30KT BKN110CB
     FM240200 14012G22KT P6SM VCTS SCT100CB BKN150
     FM240600 11013KT P6SM FEW120 BKN150
     FM241900 20009KT P6SM VCTS SCT120CB BKN150=



000
FTUS45 KGJT 231720
TAFGJT
TAF
KGJT 231720Z 2318/2418 15005KT P6SM SCT150
     FM231900 23008KT P6SM FEW110 SCT150
     FM232200 21012G20KT P6SM VCTS SCT110CB BKN200
      TEMPO 2322/2402 VRB20G30KT
     FM240200 14012G22KT P6SM VCTS SCT100CB BKN150
     FM240600 11013KT P6SM FEW120 BKN150=



000
FTUS45 KGJT 231720
TAFGJT
TAF
KGJT 231720Z 2318/2418 15005KT P6SM SCT150
     FM231900 23008KT P6SM FEW110 SCT150
     FM232200 21012G20KT P6SM VCTS SCT110CB BKN200
      TEMPO 2322/2402 VRB20G30KT
     FM240200 14012G22KT P6SM VCTS SCT100CB BKN150
     FM240600 11013KT P6SM FEW120 BKN150=



000
FTUS45 KGJT 231120
TAFGJT
TAF
KGJT 231120Z 2312/2412 10012KT P6SM FEW200
     FM231400 14012KT P6SM FEW150
     FM231900 24008KT P6SM SCT150
     FM232200 21012G20KT P6SM VCTS SCT110CB BKN200
      TEMPO 2322/2402 VRB20G30KT
     FM240200 14012G22KT P6SM VCTS SCT100CB BKN150
     FM240600 11013KT P6SM FEW120 BKN200=



000
FTUS45 KGJT 231120
TAFGJT
TAF
KGJT 231120Z 2312/2412 10012KT P6SM FEW200
     FM231400 14012KT P6SM FEW150
     FM231900 24008KT P6SM SCT150
     FM232200 21012G20KT P6SM VCTS SCT110CB BKN200
      TEMPO 2322/2402 VRB20G30KT
     FM240200 14012G22KT P6SM VCTS SCT100CB BKN150
     FM240600 11013KT P6SM FEW120 BKN200=



000
FTUS45 KGJT 230520
TAFGJT
TAF
KGJT 230520Z 2306/2406 04005KT P6SM SKC
     FM230800 12010KT P6SM SCT200
     FM231500 VRB03KT P6SM FEW120
     FM232100 34008G20KT P6SM VCSH SCT070 BKN150
     FM240300 05007KT P6SM VCSH BKN070 OVC120=



000
FTUS45 KGJT 230520
TAFGJT
TAF
KGJT 230520Z 2306/2406 04005KT P6SM SKC
     FM230800 12010KT P6SM SCT200
     FM231500 VRB03KT P6SM FEW120
     FM232100 34008G20KT P6SM VCSH SCT070 BKN150
     FM240300 05007KT P6SM VCSH BKN070 OVC120=



000
FTUS45 KGJT 222330
TAFGJT
TAF
KGJT 222330Z 2300/2324 29008KT P6SM SKC
     FM230300 04005KT P6SM SKC
     FM230700 12010KT P6SM SCT200
     FM231500 VRB03KT P6SM FEW120
     FM232000 34008KT P6SM VCSH SCT070 BKN150=



000
FTUS45 KGJT 222330
TAFGJT
TAF
KGJT 222330Z 2300/2324 29008KT P6SM SKC
     FM230300 04005KT P6SM SKC
     FM230700 12010KT P6SM SCT200
     FM231500 VRB03KT P6SM FEW120
     FM232000 34008KT P6SM VCSH SCT070 BKN150=



000
FTUS45 KGJT 221720
TAFGJT
TAF
KGJT 221720Z 2218/2318 15008KT P6SM SKC
     FM222000 30008KT P6SM SKC
     FM230300 04005KT P6SM SKC
     FM230700 12010KT P6SM SCT200=



000
FTUS45 KGJT 221720
TAFGJT
TAF
KGJT 221720Z 2218/2318 15008KT P6SM SKC
     FM222000 30008KT P6SM SKC
     FM230300 04005KT P6SM SKC
     FM230700 12010KT P6SM SCT200=



000
FTUS45 KGJT 221120
TAFGJT
TAF
KGJT 221120Z 2212/2312 10007KT P6SM SKC
     FM221400 13008KT P6SM SKC
     FM221900 30008KT P6SM FEW120
     FM230300 04005KT P6SM SKC
     FM230700 11010KT P6SM SKC=



000
FTUS45 KGJT 221120
TAFGJT
TAF
KGJT 221120Z 2212/2312 10007KT P6SM SKC
     FM221400 13008KT P6SM SKC
     FM221900 30008KT P6SM FEW120
     FM230300 04005KT P6SM SKC
     FM230700 11010KT P6SM SKC=



000
FTUS45 KGJT 220520
TAFGJT
TAF
KGJT 220520Z 2206/2306 10007KT P6SM SKC
     FM221400 14008KT P6SM SKC
     FM221900 30010G18KT P6SM FEW120
     FM230100 29008KT P6SM FEW200=



000
FTUS45 KGJT 220520
TAFGJT
TAF
KGJT 220520Z 2206/2306 10007KT P6SM SKC
     FM221400 14008KT P6SM SKC
     FM221900 30010G18KT P6SM FEW120
     FM230100 29008KT P6SM FEW200=



000
FTUS45 KGJT 212334
TAFGJT
TAF
KGJT 212334Z 2200/2224 29008KT P6SM SKC
     FM220400 10007KT P6SM SKC
     FM221400 14008KT P6SM SKC
     FM221900 30010G18KT P6SM FEW120=



000
FTUS45 KGJT 212334
TAFGJT
TAF
KGJT 212334Z 2200/2224 29008KT P6SM SKC
     FM220400 10007KT P6SM SKC
     FM221400 14008KT P6SM SKC
     FM221900 30010G18KT P6SM FEW120=



000
FTUS45 KGJT 212024 AAA
TAFGJT
TAF AMD
KGJT 212024Z 2120/2218 31010G18KT P6SM FEW120
     FM220100 29008KT P6SM SKC
     FM220400 10007KT P6SM SKC
     FM221400 14008KT P6SM SKC=



000
FTUS45 KGJT 212024 AAA
TAFGJT
TAF AMD
KGJT 212024Z 2120/2218 31010G18KT P6SM FEW120
     FM220100 29008KT P6SM SKC
     FM220400 10007KT P6SM SKC
     FM221400 14008KT P6SM SKC=



000
FTUS45 KGJT 211720
TAFGJT
TAF
KGJT 211720Z 2118/2218 18007KT P6SM FEW250
     FM211900 28009KT P6SM FEW120
     FM220400 10007KT P6SM SKC
     FM221400 14008KT P6SM SKC=



000
FTUS45 KGJT 211720
TAFGJT
TAF
KGJT 211720Z 2118/2218 18007KT P6SM FEW250
     FM211900 28009KT P6SM FEW120
     FM220400 10007KT P6SM SKC
     FM221400 14008KT P6SM SKC=



000
FTUS45 KGJT 211152 AAA
TAFGJT
TAF AMD
KGJT 211152Z 2112/2212 11010KT P6SM SCT200
     FM211900 28009KT P6SM FEW120
     FM220100 35008KT P6SM SKC
     FM220700 11010KT P6SM SKC=



000
FTUS45 KGJT 211152 AAA
TAFGJT
TAF AMD
KGJT 211152Z 2112/2212 11010KT P6SM SCT200
     FM211900 28009KT P6SM FEW120
     FM220100 35008KT P6SM SKC
     FM220700 11010KT P6SM SKC=



000
FTUS45 KGJT 211120
TAFGJT
TAF
KGJT 211120Z 2112/2212 11010KT P6SM SKC
     FM211900 28009KT P6SM FEW120
     FM220100 35008KT P6SM SKC
     FM220700 11010KT P6SM SKC=



000
FTUS45 KGJT 211120
TAFGJT
TAF
KGJT 211120Z 2112/2212 11010KT P6SM SKC
     FM211900 28009KT P6SM FEW120
     FM220100 35008KT P6SM SKC
     FM220700 11010KT P6SM SKC=



000
FTUS45 KGJT 210520
TAFGJT
TAF
KGJT 210520Z 2106/2206 13010KT P6SM FEW120 SCT200
     FM210700 11008KT P6SM FEW200
     FM211400 13008KT P6SM SKC
     FM211900 28009KT P6SM FEW120
     FM220100 35008KT P6SM SKC=



000
FTUS45 KGJT 210520
TAFGJT
TAF
KGJT 210520Z 2106/2206 13010KT P6SM FEW120 SCT200
     FM210700 11008KT P6SM FEW200
     FM211400 13008KT P6SM SKC
     FM211900 28009KT P6SM FEW120
     FM220100 35008KT P6SM SKC=



    US Dept of Commerce
    National Oceanic and Atmospheric Administration
    National Weather Service
    1325 East West Highway
    Silver Spring, MD 20910
    Page Author: NWS Internet Services Team
Disclaimer
Information Quality
Credits
Glossary
Privacy Policy
Freedom of Information Act (FOIA)
About Us
Career Opportunities